Terminal Aerodrome Forecast
Issued by NWS Mt. Holly, NJ

Home | Current Version | Previous Version | Text Only | Print | Product List | Glossary On
Versions: 1 2 3 4 5 6 7 8 9 10 11 12 13 14 15 16 17 18 19 20 21 22 23 24 25
000
FTUS41 KPHI 230541
TAFILG
TAF
KILG 230541Z 2306/2406 07008KT 4SM BR OVC008
     FM231200 09008KT 3SM -RA BR OVC008
     FM232100 14005KT 2SM -DZ BR OVC008
     FM240200 VRB03KT 5SM BR OVC008=

USA.gov is the U.S. government's official web portal to all federal, state and local government web resources and services.